< < Back
Terminal Aerodrome Forecast


Current Version              Previous Versions:   1  2  3  4  5  6  7  8  9  

Terminal Aerodrome Forecast

027
FTUS42 KGSP 261120
TAFAND
TAF
KAND 261120Z 2612/2712 00000KT P6SM FEW002
      TEMPO 2612/2614 5SM BR BKN002
     FM261400 04004KT P6SM SCT050
     FM261800 08005KT P6SM BKN045
     FM262000 11005KT P6SM SCT045=



Latest METAR

223
SAUS70 KWBC 261100 RRA
MTRAND
METAR KAND 261056Z AUTO 00000KT 10SM FEW002 22/21 A3011 RMK AO2 SLP187
T02220211


USA.gov is the U.S. government's official web portal to all federal, state and local government web resources and services.